sensor_id;sensor_type;location;lat;lon;timestamp;P1;durP1;ratioP1;P2;durP2;ratioP2
21272;SDS011;36726;52.328;10.552;2023-02-28T00:00:22;9.77;;;2.78;;
21272;SDS011;36726;52.328;10.552;2023-02-28T00:02:49;5.97;;;2.75;;
21272;SDS011;36726;52.328;10.552;2023-02-28T00:05:17;6.35;;;2.60;;
21272;SDS011;36726;52.328;10.552;2023-02-28T00:07:45;3.58;;;2.30;;
21272;SDS011;36726;52.328;10.552;2023-02-28T00:10:13;4.07;;;2.55;;
21272;SDS011;36726;52.328;10.552;2023-02-28T00:12:45;5.47;;;2.90;;
21272;SDS011;36726;52.328;10.552;2023-02-28T00:15:11;6.82;;;3.13;;
21272;SDS011;36726;52.328;10.552;2023-02-28T00:17:38;5.97;;;2.65;;
21272;SDS011;36726;52.328;10.552;2023-02-28T00:20:05;5.53;;;3.00;;
21272;SDS011;36726;52.328;10.552;2023-02-28T00:22:39;6.85;;;2.40;;
21272;SDS011;36726;52.328;10.552;2023-02-28T00:25:07;6.03;;;2.40;;
21272;SDS011;36726;52.328;10.552;2023-02-28T00:27:35;9.50;;;2.97;;
21272;SDS011;36726;52.328;10.552;2023-02-28T00:30:04;3.85;;;2.45;;
21272;SDS011;36726;52.328;10.552;2023-02-28T00:32:32;6.65;;;2.85;;
21272;SDS011;36726;52.328;10.552;2023-02-28T00:35:00;6.57;;;2.65;;
21272;SDS011;36726;52.328;10.552;2023-02-28T00:37:27;4.93;;;2.80;;
21272;SDS011;36726;52.328;10.552;2023-02-28T00:39:53;6.53;;;3.08;;
21272;SDS011;36726;52.328;10.552;2023-02-28T00:42:21;7.03;;;3.03;;
21272;SDS011;36726;52.328;10.552;2023-02-28T00:44:47;4.45;;;2.40;;
21272;SDS011;36726;52.328;10.552;2023-02-28T00:47:14;6.55;;;2.80;;
21272;SDS011;36726;52.328;10.552;2023-02-28T00:49:42;4.90;;;2.13;;
21272;SDS011;36726;52.328;10.552;2023-02-28T00:52:09;4.78;;;2.30;;
21272;SDS011;36726;52.328;10.552;2023-02-28T00:54:36;6.72;;;2.67;;
21272;SDS011;36726;52.328;10.552;2023-02-28T00:57:02;5.65;;;2.83;;
21272;SDS011;36726;52.328;10.552;2023-02-28T00:59:30;4.97;;;2.75;;
21272;SDS011;36726;52.328;10.552;2023-02-28T01:01:57;5.90;;;2.40;;
21272;SDS011;36726;52.328;10.552;2023-02-28T01:04:23;4.07;;;2.25;;
21272;SDS011;36726;52.328;10.552;2023-02-28T01:06:50;6.75;;;2.40;;
21272;SDS011;36726;52.328;10.552;2023-02-28T01:09:17;7.60;;;2.50;;
21272;SDS011;36726;52.328;10.552;2023-02-28T01:11:43;5.78;;;2.45;;
21272;SDS011;36726;52.328;10.552;2023-02-28T01:14:14;2.42;;;1.83;;
21272;SDS011;36726;52.328;10.552;2023-02-28T01:16:44;4.60;;;1.70;;
21272;SDS011;36726;52.328;10.552;2023-02-28T01:19:11;3.35;;;1.95;;
21272;SDS011;36726;52.328;10.552;2023-02-28T01:21:37;3.50;;;2.13;;
21272;SDS011;36726;52.328;10.552;2023-02-28T01:24:04;2.60;;;1.70;;
21272;SDS011;36726;52.328;10.552;2023-02-28T01:26:31;3.75;;;2.20;;
21272;SDS011;36726;52.328;10.552;2023-02-28T01:28:58;4.50;;;2.55;;
21272;SDS011;36726;52.328;10.552;2023-02-28T01:31:24;9.48;;;2.55;;
21272;SDS011;36726;52.328;10.552;2023-02-28T01:33:51;10.55;;;3.17;;
21272;SDS011;36726;52.328;10.552;2023-02-28T01:36:22;3.67;;;2.35;;
21272;SDS011;36726;52.328;10.552;2023-02-28T01:38:50;7.25;;;2.60;;
21272;SDS011;36726;52.328;10.552;2023-02-28T01:41:23;4.40;;;2.50;;
21272;SDS011;36726;52.328;10.552;2023-02-28T01:43:57;6.65;;;2.60;;
21272;SDS011;36726;52.328;10.552;2023-02-28T01:46:33;3.33;;;1.95;;
21272;SDS011;36726;52.328;10.552;2023-02-28T01:49:05;5.32;;;2.42;;
21272;SDS011;36726;52.328;10.552;2023-02-28T01:51:47;4.70;;;2.20;;
21272;SDS011;36726;52.328;10.552;2023-02-28T01:54:21;5.85;;;2.60;;
21272;SDS011;36726;52.328;10.552;2023-02-28T01:56:54;3.80;;;2.00;;
21272;SDS011;36726;52.328;10.552;2023-02-28T01:59:29;8.82;;;2.50;;
21272;SDS011;36726;52.328;10.552;2023-02-28T02:02:01;4.30;;;2.40;;
21272;SDS011;36726;52.328;10.552;2023-02-28T02:04:32;4.63;;;2.25;;
21272;SDS011;36726;52.328;10.552;2023-02-28T02:07:03;3.53;;;2.17;;
21272;SDS011;36726;52.328;10.552;2023-02-28T02:09:30;5.03;;;2.30;;
21272;SDS011;36726;52.328;10.552;2023-02-28T02:11:56;4.43;;;2.50;;
21272;SDS011;36726;52.328;10.552;2023-02-28T02:17:05;6.55;;;2.67;;
21272;SDS011;36726;52.328;10.552;2023-02-28T02:26:16;3.20;;;2.00;;
21272;SDS011;36726;52.328;10.552;2023-02-28T02:34:42;4.85;;;2.42;;
21272;SDS011;36726;52.328;10.552;2023-02-28T02:37:37;3.58;;;2.13;;
21272;SDS011;36726;52.328;10.552;2023-02-28T02:40:11;3.75;;;2.53;;
21272;SDS011;36726;52.328;10.552;2023-02-28T02:45:29;4.03;;;2.60;;
21272;SDS011;36726;52.328;10.552;2023-02-28T02:48:03;3.70;;;2.38;;
21272;SDS011;36726;52.328;10.552;2023-02-28T02:50:41;4.72;;;2.47;;
21272;SDS011;36726;52.328;10.552;2023-02-28T02:53:11;4.90;;;2.42;;
21272;SDS011;36726;52.328;10.552;2023-02-28T02:55:42;5.63;;;2.03;;
21272;SDS011;36726;52.328;10.552;2023-02-28T02:58:15;4.63;;;2.25;;
21272;SDS011;36726;52.328;10.552;2023-02-28T03:00:47;4.25;;;2.15;;
21272;SDS011;36726;52.328;10.552;2023-02-28T03:03:17;4.78;;;2.42;;
21272;SDS011;36726;52.328;10.552;2023-02-28T03:05:48;4.68;;;2.25;;
21272;SDS011;36726;52.328;10.552;2023-02-28T03:08:16;4.93;;;2.53;;
21272;SDS011;36726;52.328;10.552;2023-02-28T03:10:45;6.13;;;2.80;;
21272;SDS011;36726;52.328;10.552;2023-02-28T03:15:47;4.00;;;2.50;;
21272;SDS011;36726;52.328;10.552;2023-02-28T03:21:06;4.75;;;2.90;;
21272;SDS011;36726;52.328;10.552;2023-02-28T03:24:02;5.53;;;2.97;;
21272;SDS011;36726;52.328;10.552;2023-02-28T03:26:42;6.82;;;3.45;;
21272;SDS011;36726;52.328;10.552;2023-02-28T03:29:22;4.70;;;2.72;;
21272;SDS011;36726;52.328;10.552;2023-02-28T03:31:58;4.78;;;2.97;;
21272;SDS011;36726;52.328;10.552;2023-02-28T03:34:34;4.95;;;2.78;;
21272;SDS011;36726;52.328;10.552;2023-02-28T03:37:04;5.60;;;2.95;;
21272;SDS011;36726;52.328;10.552;2023-02-28T03:39:38;7.30;;;3.30;;
21272;SDS011;36726;52.328;10.552;2023-02-28T03:42:09;4.32;;;2.50;;
21272;SDS011;36726;52.328;10.552;2023-02-28T03:44:41;6.10;;;3.03;;
21272;SDS011;36726;52.328;10.552;2023-02-28T03:47:16;11.30;;;3.03;;
21272;SDS011;36726;52.328;10.552;2023-02-28T03:49:52;5.60;;;3.00;;
21272;SDS011;36726;52.328;10.552;2023-02-28T03:52:23;6.22;;;3.10;;
21272;SDS011;36726;52.328;10.552;2023-02-28T03:54:56;4.15;;;2.95;;
21272;SDS011;36726;52.328;10.552;2023-02-28T03:57:37;4.78;;;2.97;;
21272;SDS011;36726;52.328;10.552;2023-02-28T04:00:14;4.88;;;3.30;;
21272;SDS011;36726;52.328;10.552;2023-02-28T04:02:45;6.70;;;3.30;;
21272;SDS011;36726;52.328;10.552;2023-02-28T04:05:12;7.78;;;3.50;;
21272;SDS011;36726;52.328;10.552;2023-02-28T04:07:38;7.18;;;3.10;;
21272;SDS011;36726;52.328;10.552;2023-02-28T04:10:05;6.57;;;3.35;;
21272;SDS011;36726;52.328;10.552;2023-02-28T04:12:32;5.55;;;3.00;;
21272;SDS011;36726;52.328;10.552;2023-02-28T04:14:59;7.00;;;3.40;;
21272;SDS011;36726;52.328;10.552;2023-02-28T04:17:25;6.05;;;3.55;;
21272;SDS011;36726;52.328;10.552;2023-02-28T04:19:52;5.05;;;3.28;;
21272;SDS011;36726;52.328;10.552;2023-02-28T04:22:18;7.38;;;3.60;;
21272;SDS011;36726;52.328;10.552;2023-02-28T04:24:45;8.98;;;3.65;;
21272;SDS011;36726;52.328;10.552;2023-02-28T04:27:11;5.82;;;3.42;;
21272;SDS011;36726;52.328;10.552;2023-02-28T04:29:38;5.03;;;3.30;;
21272;SDS011;36726;52.328;10.552;2023-02-28T04:32:04;5.18;;;3.03;;
21272;SDS011;36726;52.328;10.552;2023-02-28T04:34:31;5.75;;;3.33;;
21272;SDS011;36726;52.328;10.552;2023-02-28T04:36:59;4.78;;;3.00;;
21272;SDS011;36726;52.328;10.552;2023-02-28T04:39:42;5.00;;;3.05;;
21272;SDS011;36726;52.328;10.552;2023-02-28T04:42:09;6.22;;;3.00;;
21272;SDS011;36726;52.328;10.552;2023-02-28T04:44:37;5.55;;;3.47;;
21272;SDS011;36726;52.328;10.552;2023-02-28T04:47:03;7.10;;;3.70;;
21272;SDS011;36726;52.328;10.552;2023-02-28T04:49:30;8.95;;;3.45;;
21272;SDS011;36726;52.328;10.552;2023-02-28T04:51:56;4.95;;;3.10;;
21272;SDS011;36726;52.328;10.552;2023-02-28T04:54:22;6.05;;;3.33;;
21272;SDS011;36726;52.328;10.552;2023-02-28T04:56:49;7.30;;;3.17;;
21272;SDS011;36726;52.328;10.552;2023-02-28T04:59:16;4.63;;;2.90;;
21272;SDS011;36726;52.328;10.552;2023-02-28T05:01:45;5.60;;;3.03;;
21272;SDS011;36726;52.328;10.552;2023-02-28T05:04:13;7.82;;;3.17;;
21272;SDS011;36726;52.328;10.552;2023-02-28T05:06:40;5.72;;;3.00;;
21272;SDS011;36726;52.328;10.552;2023-02-28T05:09:06;5.60;;;3.13;;
21272;SDS011;36726;52.328;10.552;2023-02-28T05:11:33;4.57;;;3.08;;
21272;SDS011;36726;52.328;10.552;2023-02-28T05:14:02;3.65;;;2.65;;
21272;SDS011;36726;52.328;10.552;2023-02-28T05:16:31;4.32;;;2.72;;
21272;SDS011;36726;52.328;10.552;2023-02-28T05:18:58;10.13;;;3.42;;
21272;SDS011;36726;52.328;10.552;2023-02-28T05:23:57;4.32;;;2.95;;
21272;SDS011;36726;52.328;10.552;2023-02-28T05:26:25;6.30;;;3.40;;
21272;SDS011;36726;52.328;10.552;2023-02-28T05:28:53;6.28;;;2.95;;
21272;SDS011;36726;52.328;10.552;2023-02-28T05:31:19;7.72;;;3.03;;
21272;SDS011;36726;52.328;10.552;2023-02-28T05:33:46;5.05;;;2.92;;
21272;SDS011;36726;52.328;10.552;2023-02-28T05:36:13;6.43;;;2.90;;
21272;SDS011;36726;52.328;10.552;2023-02-28T05:38:40;5.55;;;2.90;;
21272;SDS011;36726;52.328;10.552;2023-02-28T05:41:07;4.80;;;3.05;;
21272;SDS011;36726;52.328;10.552;2023-02-28T05:43:36;6.22;;;3.22;;
21272;SDS011;36726;52.328;10.552;2023-02-28T05:46:04;8.23;;;2.85;;
21272;SDS011;36726;52.328;10.552;2023-02-28T05:48:33;9.30;;;3.45;;
21272;SDS011;36726;52.328;10.552;2023-02-28T05:51:01;4.57;;;2.70;;
21272;SDS011;36726;52.328;10.552;2023-02-28T05:53:29;8.80;;;3.40;;
21272;SDS011;36726;52.328;10.552;2023-02-28T05:55:55;9.13;;;3.25;;
21272;SDS011;36726;52.328;10.552;2023-02-28T05:58:23;5.07;;;3.08;;
21272;SDS011;36726;52.328;10.552;2023-02-28T06:00:51;5.47;;;3.38;;
21272;SDS011;36726;52.328;10.552;2023-02-28T06:03:18;8.13;;;3.30;;
21272;SDS011;36726;52.328;10.552;2023-02-28T06:05:44;5.55;;;3.03;;
21272;SDS011;36726;52.328;10.552;2023-02-28T06:08:11;5.75;;;3.10;;
21272;SDS011;36726;52.328;10.552;2023-02-28T06:10:37;4.75;;;3.08;;
21272;SDS011;36726;52.328;10.552;2023-02-28T06:13:04;6.18;;;3.05;;
21272;SDS011;36726;52.328;10.552;2023-02-28T06:15:31;8.75;;;3.45;;
21272;SDS011;36726;52.328;10.552;2023-02-28T06:17:58;5.70;;;3.10;;
21272;SDS011;36726;52.328;10.552;2023-02-28T06:20:25;7.88;;;3.75;;
21272;SDS011;36726;52.328;10.552;2023-02-28T06:22:56;5.60;;;3.38;;
21272;SDS011;36726;52.328;10.552;2023-02-28T06:25:27;5.30;;;3.05;;
21272;SDS011;36726;52.328;10.552;2023-02-28T06:27:54;7.45;;;3.28;;
21272;SDS011;36726;52.328;10.552;2023-02-28T06:30:21;5.88;;;3.05;;
21272;SDS011;36726;52.328;10.552;2023-02-28T06:32:53;7.13;;;3.60;;
21272;SDS011;36726;52.328;10.552;2023-02-28T06:35:20;5.47;;;3.05;;
21272;SDS011;36726;52.328;10.552;2023-02-28T06:37:48;7.13;;;3.45;;
21272;SDS011;36726;52.328;10.552;2023-02-28T06:40:15;7.32;;;3.83;;
21272;SDS011;36726;52.328;10.552;2023-02-28T06:42:42;10.50;;;3.88;;
21272;SDS011;36726;52.328;10.552;2023-02-28T06:45:09;6.80;;;3.47;;
21272;SDS011;36726;52.328;10.552;2023-02-28T06:47:37;11.55;;;4.00;;
21272;SDS011;36726;52.328;10.552;2023-02-28T06:50:05;7.45;;;3.70;;
21272;SDS011;36726;52.328;10.552;2023-02-28T06:52:32;5.72;;;3.58;;
21272;SDS011;36726;52.328;10.552;2023-02-28T06:54:59;7.85;;;3.45;;
21272;SDS011;36726;52.328;10.552;2023-02-28T06:57:31;8.07;;;3.42;;
21272;SDS011;36726;52.328;10.552;2023-02-28T07:00:00;9.60;;;3.30;;
21272;SDS011;36726;52.328;10.552;2023-02-28T07:02:28;6.18;;;3.38;;
21272;SDS011;36726;52.328;10.552;2023-02-28T07:04:55;10.38;;;4.03;;
21272;SDS011;36726;52.328;10.552;2023-02-28T07:07:22;7.40;;;3.95;;
21272;SDS011;36726;52.328;10.552;2023-02-28T07:09:48;12.40;;;3.75;;
21272;SDS011;36726;52.328;10.552;2023-02-28T07:12:14;6.20;;;3.70;;
21272;SDS011;36726;52.328;10.552;2023-02-28T07:14:41;10.20;;;4.30;;
21272;SDS011;36726;52.328;10.552;2023-02-28T07:17:08;8.10;;;4.20;;
21272;SDS011;36726;52.328;10.552;2023-02-28T07:19:37;7.32;;;4.13;;
21272;SDS011;36726;52.328;10.552;2023-02-28T07:22:04;7.25;;;3.65;;
21272;SDS011;36726;52.328;10.552;2023-02-28T07:24:31;6.00;;;3.35;;
21272;SDS011;36726;52.328;10.552;2023-02-28T07:26:58;4.35;;;3.33;;
21272;SDS011;36726;52.328;10.552;2023-02-28T07:29:25;5.88;;;3.33;;
21272;SDS011;36726;52.328;10.552;2023-02-28T07:31:52;6.15;;;3.55;;
21272;SDS011;36726;52.328;10.552;2023-02-28T07:34:19;6.72;;;3.60;;
21272;SDS011;36726;52.328;10.552;2023-02-28T07:36:46;6.35;;;3.33;;
21272;SDS011;36726;52.328;10.552;2023-02-28T07:39:13;8.48;;;3.78;;
21272;SDS011;36726;52.328;10.552;2023-02-28T07:41:39;5.07;;;3.38;;
21272;SDS011;36726;52.328;10.552;2023-02-28T07:44:10;8.80;;;3.88;;
21272;SDS011;36726;52.328;10.552;2023-02-28T07:46:37;5.38;;;3.22;;
21272;SDS011;36726;52.328;10.552;2023-02-28T07:49:04;6.60;;;3.00;;
21272;SDS011;36726;52.328;10.552;2023-02-28T07:51:32;6.85;;;3.20;;
21272;SDS011;36726;52.328;10.552;2023-02-28T07:53:59;5.90;;;2.80;;
21272;SDS011;36726;52.328;10.552;2023-02-28T07:56:25;6.32;;;3.00;;
21272;SDS011;36726;52.328;10.552;2023-02-28T07:58:52;5.10;;;3.10;;
21272;SDS011;36726;52.328;10.552;2023-02-28T08:01:19;4.93;;;3.00;;
21272;SDS011;36726;52.328;10.552;2023-02-28T08:03:46;3.25;;;2.22;;
21272;SDS011;36726;52.328;10.552;2023-02-28T08:06:16;3.33;;;1.85;;
21272;SDS011;36726;52.328;10.552;2023-02-28T08:08:46;4.63;;;2.20;;
21272;SDS011;36726;52.328;10.552;2023-02-28T08:11:13;3.67;;;1.70;;
21272;SDS011;36726;52.328;10.552;2023-02-28T08:13:40;3.15;;;1.48;;
21272;SDS011;36726;52.328;10.552;2023-02-28T08:16:08;3.08;;;1.63;;
21272;SDS011;36726;52.328;10.552;2023-02-28T08:18:35;2.97;;;1.58;;
21272;SDS011;36726;52.328;10.552;2023-02-28T08:21:10;4.30;;;1.60;;
21272;SDS011;36726;52.328;10.552;2023-02-28T08:23:37;2.38;;;1.38;;
21272;SDS011;36726;52.328;10.552;2023-02-28T08:26:04;5.15;;;1.42;;
21272;SDS011;36726;52.328;10.552;2023-02-28T08:28:31;3.45;;;1.25;;
21272;SDS011;36726;52.328;10.552;2023-02-28T08:30:57;2.20;;;1.30;;
21272;SDS011;36726;52.328;10.552;2023-02-28T08:33:24;3.88;;;1.60;;
21272;SDS011;36726;52.328;10.552;2023-02-28T08:35:52;2.08;;;1.38;;
21272;SDS011;36726;52.328;10.552;2023-02-28T08:38:20;2.35;;;1.45;;
21272;SDS011;36726;52.328;10.552;2023-02-28T08:40:47;2.80;;;1.30;;
21272;SDS011;36726;52.328;10.552;2023-02-28T08:43:14;2.55;;;1.55;;
21272;SDS011;36726;52.328;10.552;2023-02-28T08:45:40;3.17;;;1.80;;
21272;SDS011;36726;52.328;10.552;2023-02-28T08:48:07;6.03;;;1.85;;
21272;SDS011;36726;52.328;10.552;2023-02-28T08:50:34;4.70;;;1.98;;
21272;SDS011;36726;52.328;10.552;2023-02-28T08:53:00;4.40;;;2.28;;
21272;SDS011;36726;52.328;10.552;2023-02-28T08:55:27;5.35;;;2.30;;
21272;SDS011;36726;52.328;10.552;2023-02-28T08:57:53;4.10;;;1.77;;
21272;SDS011;36726;52.328;10.552;2023-02-28T09:00:21;4.65;;;2.35;;
21272;SDS011;36726;52.328;10.552;2023-02-28T09:02:48;4.15;;;2.08;;
21272;SDS011;36726;52.328;10.552;2023-02-28T09:05:14;7.90;;;3.00;;
21272;SDS011;36726;52.328;10.552;2023-02-28T09:07:41;6.15;;;2.95;;
21272;SDS011;36726;52.328;10.552;2023-02-28T09:10:08;7.30;;;2.90;;
21272;SDS011;36726;52.328;10.552;2023-02-28T09:12:35;5.00;;;3.10;;
21272;SDS011;36726;52.328;10.552;2023-02-28T09:15:02;5.10;;;2.90;;
21272;SDS011;36726;52.328;10.552;2023-02-28T09:17:29;6.13;;;3.38;;
21272;SDS011;36726;52.328;10.552;2023-02-28T09:19:56;8.05;;;2.63;;
21272;SDS011;36726;52.328;10.552;2023-02-28T09:22:23;5.82;;;2.70;;
21272;SDS011;36726;52.328;10.552;2023-02-28T09:24:50;6.13;;;2.80;;
21272;SDS011;36726;52.328;10.552;2023-02-28T09:27:17;7.13;;;2.47;;
21272;SDS011;36726;52.328;10.552;2023-02-28T09:29:43;5.55;;;2.92;;
21272;SDS011;36726;52.328;10.552;2023-02-28T09:32:10;4.70;;;2.45;;
21272;SDS011;36726;52.328;10.552;2023-02-28T09:34:36;6.95;;;2.78;;
21272;SDS011;36726;52.328;10.552;2023-02-28T09:37:03;5.25;;;2.90;;
21272;SDS011;36726;52.328;10.552;2023-02-28T09:39:30;6.10;;;2.70;;
21272;SDS011;36726;52.328;10.552;2023-02-28T09:41:57;5.53;;;2.80;;
21272;SDS011;36726;52.328;10.552;2023-02-28T09:46:59;4.95;;;2.60;;
21272;SDS011;36726;52.328;10.552;2023-02-28T09:49:34;5.10;;;2.75;;
21272;SDS011;36726;52.328;10.552;2023-02-28T09:52:10;4.25;;;2.65;;
21272;SDS011;36726;52.328;10.552;2023-02-28T09:54:39;4.80;;;2.60;;
21272;SDS011;36726;52.328;10.552;2023-02-28T09:57:08;9.80;;;2.40;;
21272;SDS011;36726;52.328;10.552;2023-02-28T10:02:43;4.93;;;2.38;;
21272;SDS011;36726;52.328;10.552;2023-02-28T10:05:25;5.38;;;2.20;;
21272;SDS011;36726;52.328;10.552;2023-02-28T10:10:50;3.05;;;2.30;;
21272;SDS011;36726;52.328;10.552;2023-02-28T10:16:12;3.95;;;2.10;;
21272;SDS011;36726;52.328;10.552;2023-02-28T10:19:04;2.72;;;2.10;;
21272;SDS011;36726;52.328;10.552;2023-02-28T10:21:36;3.53;;;2.40;;
21272;SDS011;36726;52.328;10.552;2023-02-28T10:26:49;5.30;;;2.17;;
21272;SDS011;36726;52.328;10.552;2023-02-28T10:29:19;3.95;;;1.90;;
21272;SDS011;36726;52.328;10.552;2023-02-28T10:31:46;3.80;;;2.20;;
21272;SDS011;36726;52.328;10.552;2023-02-28T10:34:13;5.65;;;2.10;;
21272;SDS011;36726;52.328;10.552;2023-02-28T10:36:40;5.32;;;1.92;;
21272;SDS011;36726;52.328;10.552;2023-02-28T10:42:00;4.35;;;1.75;;
21272;SDS011;36726;52.328;10.552;2023-02-28T10:44:27;2.83;;;1.75;;
21272;SDS011;36726;52.328;10.552;2023-02-28T10:46:53;2.97;;;1.85;;
21272;SDS011;36726;52.328;10.552;2023-02-28T10:49:22;1.90;;;1.30;;
21272;SDS011;36726;52.328;10.552;2023-02-28T10:51:51;5.15;;;1.52;;
21272;SDS011;36726;52.328;10.552;2023-02-28T10:54:31;2.38;;;1.30;;
21272;SDS011;36726;52.328;10.552;2023-02-28T10:57:08;1.20;;;1.10;;
21272;SDS011;36726;52.328;10.552;2023-02-28T10:59:44;2.88;;;1.50;;
21272;SDS011;36726;52.328;10.552;2023-02-28T11:02:28;2.10;;;1.50;;
21272;SDS011;36726;52.328;10.552;2023-02-28T11:04:58;4.03;;;1.27;;
21272;SDS011;36726;52.328;10.552;2023-02-28T11:07:25;2.38;;;1.45;;
21272;SDS011;36726;52.328;10.552;2023-02-28T11:09:56;2.65;;;1.45;;
21272;SDS011;36726;52.328;10.552;2023-02-28T11:14:55;2.22;;;1.20;;
21272;SDS011;36726;52.328;10.552;2023-02-28T11:17:27;1.75;;;1.08;;
21272;SDS011;36726;52.328;10.552;2023-02-28T11:19:57;2.72;;;1.30;;
21272;SDS011;36726;52.328;10.552;2023-02-28T11:22:28;2.15;;;1.08;;
21272;SDS011;36726;52.328;10.552;2023-02-28T11:24:59;1.80;;;1.20;;
21272;SDS011;36726;52.328;10.552;2023-02-28T11:29:58;3.60;;;1.30;;
21272;SDS011;36726;52.328;10.552;2023-02-28T11:32:26;2.65;;;1.20;;
21272;SDS011;36726;52.328;10.552;2023-02-28T11:35:17;1.73;;;1.17;;
21272;SDS011;36726;52.328;10.552;2023-02-28T11:37:49;2.22;;;1.38;;
21272;SDS011;36726;52.328;10.552;2023-02-28T11:40:16;2.95;;;1.58;;
21272;SDS011;36726;52.328;10.552;2023-02-28T11:42:48;1.98;;;1.15;;
21272;SDS011;36726;52.328;10.552;2023-02-28T11:45:25;2.80;;;1.75;;
21272;SDS011;36726;52.328;10.552;2023-02-28T11:48:05;2.70;;;1.50;;
21272;SDS011;36726;52.328;10.552;2023-02-28T11:58:55;2.85;;;1.30;;
21272;SDS011;36726;52.328;10.552;2023-02-28T12:01:53;2.13;;;1.10;;
21272;SDS011;36726;52.328;10.552;2023-02-28T12:24:09;1.80;;;1.35;;
21272;SDS011;36726;52.328;10.552;2023-02-28T12:26:44;3.38;;;1.70;;
21272;SDS011;36726;52.328;10.552;2023-02-28T12:29:22;2.35;;;1.10;;
21272;SDS011;36726;52.328;10.552;2023-02-28T12:31:55;3.33;;;1.73;;
21272;SDS011;36726;52.328;10.552;2023-02-28T12:34:32;3.78;;;1.35;;
21272;SDS011;36726;52.328;10.552;2023-02-28T12:37:07;2.53;;;1.33;;
21272;SDS011;36726;52.328;10.552;2023-02-28T12:39:44;1.98;;;1.52;;
21272;SDS011;36726;52.328;10.552;2023-02-28T12:42:21;2.38;;;1.75;;
21272;SDS011;36726;52.328;10.552;2023-02-28T12:44:53;2.97;;;1.70;;
21272;SDS011;36726;52.328;10.552;2023-02-28T12:47:48;3.85;;;1.98;;
21272;SDS011;36726;52.328;10.552;2023-02-28T12:50:19;4.45;;;1.73;;
21272;SDS011;36726;52.328;10.552;2023-02-28T12:58:50;2.92;;;1.80;;
21272;SDS011;36726;52.328;10.552;2023-02-28T13:09:39;3.75;;;1.88;;
21272;SDS011;36726;52.328;10.552;2023-02-28T13:12:13;3.05;;;1.80;;
21272;SDS011;36726;52.328;10.552;2023-02-28T13:14:40;4.18;;;1.85;;
21272;SDS011;36726;52.328;10.552;2023-02-28T13:19:38;3.35;;;1.85;;
21272;SDS011;36726;52.328;10.552;2023-02-28T13:22:35;2.75;;;1.30;;
21272;SDS011;36726;52.328;10.552;2023-02-28T13:27:50;5.28;;;1.67;;
21272;SDS011;36726;52.328;10.552;2023-02-28T13:33:36;1.60;;;1.23;;
21272;SDS011;36726;52.328;10.552;2023-02-28T13:36:29;2.65;;;1.40;;
21272;SDS011;36726;52.328;10.552;2023-02-28T13:38:58;2.42;;;1.33;;
21272;SDS011;36726;52.328;10.552;2023-02-28T13:51:49;2.55;;;1.70;;
21272;SDS011;36726;52.328;10.552;2023-02-28T14:03:22;5.00;;;1.80;;
21272;SDS011;36726;52.328;10.552;2023-02-28T14:08:52;3.10;;;1.80;;
21272;SDS011;36726;52.328;10.552;2023-02-28T14:11:24;2.63;;;1.77;;
21272;SDS011;36726;52.328;10.552;2023-02-28T14:13:57;2.35;;;1.70;;
21272;SDS011;36726;52.328;10.552;2023-02-28T14:16:26;2.45;;;1.50;;
21272;SDS011;36726;52.328;10.552;2023-02-28T14:19:02;3.33;;;1.70;;
21272;SDS011;36726;52.328;10.552;2023-02-28T14:21:38;3.25;;;1.98;;
21272;SDS011;36726;52.328;10.552;2023-02-28T14:24:24;1.73;;;1.23;;
21272;SDS011;36726;52.328;10.552;2023-02-28T14:38:36;3.38;;;1.73;;
21272;SDS011;36726;52.328;10.552;2023-02-28T14:41:29;3.58;;;1.83;;
21272;SDS011;36726;52.328;10.552;2023-02-28T14:43:58;4.22;;;2.05;;
21272;SDS011;36726;52.328;10.552;2023-02-28T14:46:36;2.50;;;1.65;;
21272;SDS011;36726;52.328;10.552;2023-02-28T14:49:05;3.78;;;1.60;;
21272;SDS011;36726;52.328;10.552;2023-02-28T14:51:35;3.97;;;2.10;;
21272;SDS011;36726;52.328;10.552;2023-02-28T14:54:02;2.80;;;1.63;;
21272;SDS011;36726;52.328;10.552;2023-02-28T14:56:36;4.63;;;2.10;;
21272;SDS011;36726;52.328;10.552;2023-02-28T14:59:05;4.22;;;2.10;;
21272;SDS011;36726;52.328;10.552;2023-02-28T15:01:51;2.55;;;1.63;;
21272;SDS011;36726;52.328;10.552;2023-02-28T15:04:22;2.72;;;1.65;;
21272;SDS011;36726;52.328;10.552;2023-02-28T15:07:06;3.20;;;2.10;;
21272;SDS011;36726;52.328;10.552;2023-02-28T15:09:36;4.32;;;1.80;;
21272;SDS011;36726;52.328;10.552;2023-02-28T15:12:03;2.15;;;1.70;;
21272;SDS011;36726;52.328;10.552;2023-02-28T15:14:30;2.88;;;1.50;;
21272;SDS011;36726;52.328;10.552;2023-02-28T15:16:59;2.75;;;1.90;;
21272;SDS011;36726;52.328;10.552;2023-02-28T15:19:32;2.65;;;1.60;;
21272;SDS011;36726;52.328;10.552;2023-02-28T15:22:03;3.20;;;1.98;;
21272;SDS011;36726;52.328;10.552;2023-02-28T15:24:36;3.63;;;1.55;;
21272;SDS011;36726;52.328;10.552;2023-02-28T15:27:52;3.67;;;1.70;;
21272;SDS011;36726;52.328;10.552;2023-02-28T15:29:59;3.47;;;2.03;;
21272;SDS011;36726;52.328;10.552;2023-02-28T15:32:32;2.95;;;1.80;;
21272;SDS011;36726;52.328;10.552;2023-02-28T15:37:47;3.15;;;1.70;;
21272;SDS011;36726;52.328;10.552;2023-02-28T15:40:37;3.22;;;1.65;;
21272;SDS011;36726;52.328;10.552;2023-02-28T15:43:12;3.47;;;1.80;;
21272;SDS011;36726;52.328;10.552;2023-02-28T15:45:48;3.88;;;1.75;;
21272;SDS011;36726;52.328;10.552;2023-02-28T15:48:20;3.88;;;1.65;;
21272;SDS011;36726;52.328;10.552;2023-02-28T15:50:53;2.63;;;1.55;;
21272;SDS011;36726;52.328;10.552;2023-02-28T15:53:27;2.00;;;1.80;;
21272;SDS011;36726;52.328;10.552;2023-02-28T15:55:58;4.35;;;1.55;;
21272;SDS011;36726;52.328;10.552;2023-02-28T15:58:27;2.15;;;1.40;;
21272;SDS011;36726;52.328;10.552;2023-02-28T16:01:08;3.38;;;1.70;;
21272;SDS011;36726;52.328;10.552;2023-02-28T16:03:47;3.85;;;1.60;;
21272;SDS011;36726;52.328;10.552;2023-02-28T16:09:23;3.55;;;1.55;;
21272;SDS011;36726;52.328;10.552;2023-02-28T16:11:51;1.92;;;1.42;;
21272;SDS011;36726;52.328;10.552;2023-02-28T16:14:24;2.65;;;1.38;;
21272;SDS011;36726;52.328;10.552;2023-02-28T16:16:57;2.17;;;1.40;;
21272;SDS011;36726;52.328;10.552;2023-02-28T16:19:31;2.25;;;1.58;;
21272;SDS011;36726;52.328;10.552;2023-02-28T16:22:00;3.30;;;1.30;;
21272;SDS011;36726;52.328;10.552;2023-02-28T16:24:27;3.20;;;1.50;;
21272;SDS011;36726;52.328;10.552;2023-02-28T16:26:53;5.68;;;1.60;;
21272;SDS011;36726;52.328;10.552;2023-02-28T16:29:33;1.92;;;1.48;;
21272;SDS011;36726;52.328;10.552;2023-02-28T16:32:04;3.35;;;1.23;;
21272;SDS011;36726;52.328;10.552;2023-02-28T16:34:31;1.80;;;1.30;;
21272;SDS011;36726;52.328;10.552;2023-02-28T16:36:58;2.25;;;1.30;;
21272;SDS011;36726;52.328;10.552;2023-02-28T16:39:25;2.58;;;1.63;;
21272;SDS011;36726;52.328;10.552;2023-02-28T16:41:51;4.13;;;1.70;;
21272;SDS011;36726;52.328;10.552;2023-02-28T16:44:24;3.70;;;1.73;;
21272;SDS011;36726;52.328;10.552;2023-02-28T16:46:55;2.95;;;2.05;;
21272;SDS011;36726;52.328;10.552;2023-02-28T16:49:22;5.38;;;2.40;;
21272;SDS011;36726;52.328;10.552;2023-02-28T16:51:49;4.60;;;2.90;;
21272;SDS011;36726;52.328;10.552;2023-02-28T16:54:15;7.88;;;3.28;;
21272;SDS011;36726;52.328;10.552;2023-02-28T16:56:43;4.97;;;2.35;;
21272;SDS011;36726;52.328;10.552;2023-02-28T16:59:12;6.47;;;2.30;;
21272;SDS011;36726;52.328;10.552;2023-02-28T17:01:39;4.22;;;2.35;;
21272;SDS011;36726;52.328;10.552;2023-02-28T17:04:08;3.97;;;1.90;;
21272;SDS011;36726;52.328;10.552;2023-02-28T17:06:35;4.88;;;2.30;;
21272;SDS011;36726;52.328;10.552;2023-02-28T17:09:01;6.43;;;2.22;;